createdAt,value
2017-07-06T00:02:12.791Z,35.17
2017-07-06T00:04:43.627Z,29.47
2017-07-06T00:07:12.088Z,25.47
2017-07-06T00:09:41.294Z,26.93
2017-07-06T00:12:09.675Z,30.57
2017-07-06T00:14:38.764Z,27.77
2017-07-06T00:17:07.108Z,29.33
2017-07-06T00:19:35.823Z,32.47
2017-07-06T00:22:05.316Z,30.33
2017-07-06T00:24:34.129Z,31.00
2017-07-06T00:27:04.094Z,28.97
2017-07-06T00:29:34.116Z,32.50
2017-07-06T00:32:03.320Z,29.63
2017-07-06T00:34:32.618Z,33.77
2017-07-06T00:37:00.923Z,30.30
2017-07-06T00:39:29.895Z,27.93
2017-07-06T00:41:59.382Z,40.40
2017-07-06T00:44:28.870Z,36.43
2017-07-06T00:46:58.152Z,30.87
2017-07-06T00:49:26.972Z,37.23
2017-07-06T00:51:57.343Z,36.07
2017-07-06T00:54:26.053Z,31.67
2017-07-06T00:56:53.437Z,34.33
2017-07-06T00:59:22.854Z,34.70
2017-07-06T01:01:51.595Z,34.20
2017-07-06T01:04:20.685Z,36.00
2017-07-06T01:06:50.002Z,32.57
2017-07-06T01:09:19.184Z,36.10
2017-07-06T01:11:46.473Z,39.27
2017-07-06T01:14:13.090Z,33.93
2017-07-06T01:16:39.762Z,30.93
2017-07-06T01:19:06.408Z,35.37
2017-07-06T01:21:33.070Z,34.13
2017-07-06T01:23:59.685Z,32.70
2017-07-06T01:26:26.336Z,35.67
2017-07-06T01:28:55.544Z,32.83
2017-07-06T01:31:24.459Z,31.17
2017-07-06T01:33:53.399Z,29.90
2017-07-06T01:36:21.829Z,31.67
2017-07-06T01:38:48.483Z,32.27
2017-07-06T01:41:15.126Z,32.27
2017-07-06T01:43:41.794Z,32.87
2017-07-06T01:46:08.427Z,32.60
2017-07-06T01:48:35.045Z,31.53
2017-07-06T01:51:01.692Z,40.00
2017-07-06T01:53:28.323Z,31.43
2017-07-06T01:55:54.984Z,27.67
2017-07-06T01:58:21.660Z,31.23
2017-07-06T02:00:48.307Z,28.43
2017-07-06T02:03:14.978Z,23.97
2017-07-06T02:05:41.613Z,28.80
2017-07-06T02:08:08.227Z,25.77
2017-07-06T02:10:37.672Z,31.23
2017-07-06T02:13:04.908Z,30.90
2017-07-06T02:15:32.820Z,29.20
2017-07-06T02:18:00.203Z,28.97
2017-07-06T02:20:28.689Z,27.97
2017-07-06T02:22:57.364Z,30.93
2017-07-06T02:25:27.664Z,32.23
2017-07-06T02:27:57.084Z,28.43
2017-07-06T02:30:25.299Z,27.57
2017-07-06T02:32:54.799Z,29.80
2017-07-06T02:35:25.771Z,31.03
2017-07-06T02:37:54.149Z,33.03
2017-07-06T02:40:23.282Z,37.27
2017-07-06T02:42:52.050Z,30.97
2017-07-06T02:45:21.247Z,33.67
2017-07-06T02:47:49.743Z,29.87
2017-07-06T02:50:18.507Z,32.23
2017-07-06T02:52:51.211Z,28.23
2017-07-06T02:55:19.139Z,23.70
2017-07-06T02:57:48.639Z,24.03
2017-07-06T03:00:17.967Z,25.77
2017-07-06T03:02:47.583Z,35.17
2017-07-06T03:05:16.127Z,28.67
2017-07-06T03:07:45.167Z,28.50
2017-07-06T03:10:13.700Z,25.30
2017-07-06T03:12:41.460Z,25.13
2017-07-06T03:15:11.527Z,25.90
2017-07-06T03:17:41.199Z,46.90
2017-07-06T03:20:11.020Z,30.57
2017-07-06T03:22:38.571Z,30.10
2017-07-06T03:25:07.500Z,23.93
2017-07-06T03:27:36.348Z,21.00
2017-07-06T03:30:04.480Z,22.73
2017-07-06T03:32:32.652Z,27.17
2017-07-06T03:35:00.845Z,29.10
2017-07-06T03:37:27.524Z,21.00
2017-07-06T03:39:55.068Z,19.90
2017-07-06T03:42:27.241Z,22.47
2017-07-06T03:44:54.413Z,29.20
2017-07-06T03:47:22.933Z,29.20
2017-07-06T03:49:51.220Z,46.60
2017-07-06T03:52:19.268Z,40.03
2017-07-06T03:54:46.732Z,29.40
2017-07-06T03:57:15.837Z,25.20
2017-07-06T03:59:44.450Z,22.73
2017-07-06T04:02:12.865Z,27.30
2017-07-06T04:04:40.808Z,29.60
2017-07-06T04:07:09.499Z,28.47
2017-07-06T04:09:37.303Z,31.23
2017-07-06T04:12:03.960Z,32.73
2017-07-06T04:14:31.596Z,37.97
2017-07-06T04:17:03.441Z,28.30
2017-07-06T04:19:35.578Z,30.00
2017-07-06T04:22:07.990Z,32.50
2017-07-06T04:24:36.183Z,34.30
2017-07-06T04:27:05.204Z,36.53
2017-07-06T04:29:34.154Z,30.50
2017-07-06T04:32:03.035Z,31.27
2017-07-06T04:34:31.924Z,36.63
2017-07-06T04:37:00.893Z,29.57
2017-07-06T04:39:29.692Z,28.23
2017-07-06T04:41:58.600Z,27.03
2017-07-06T04:44:27.288Z,30.30
2017-07-06T04:46:55.063Z,33.00
2017-07-06T04:49:23.618Z,30.23
2017-07-06T04:51:51.927Z,32.40
2017-07-06T04:54:22.435Z,34.70
2017-07-06T04:56:52.024Z,32.50
2017-07-06T04:59:23.434Z,32.27
2017-07-06T05:01:53.253Z,35.07
2017-07-06T05:04:21.747Z,31.83
2017-07-06T05:06:50.511Z,30.83
2017-07-06T05:09:20.277Z,37.37
2017-07-06T05:11:48.603Z,31.43
2017-07-06T05:14:16.655Z,32.13
2017-07-06T05:16:48.801Z,31.70
2017-07-06T05:19:16.125Z,27.50
2017-07-06T05:21:45.604Z,30.07
2017-07-06T05:24:14.995Z,23.60
2017-07-06T05:26:47.089Z,27.00
2017-07-06T05:29:15.279Z,22.50
2017-07-06T05:31:43.537Z,24.53
2017-07-06T05:34:11.710Z,26.90
2017-07-06T05:36:41.903Z,26.70
2017-07-06T05:39:09.636Z,21.43
2017-07-06T05:41:41.960Z,25.10
2017-07-06T05:44:11.991Z,25.30
2017-07-06T05:46:40.454Z,21.90
2017-07-06T05:49:10.300Z,21.33
2017-07-06T05:51:42.360Z,25.20
2017-07-06T05:54:13.375Z,24.33
2017-07-06T05:56:41.660Z,21.07
2017-07-06T05:59:13.760Z,25.87
2017-07-06T06:01:44.032Z,21.40
2017-07-06T06:04:13.660Z,24.53
2017-07-06T06:06:44.331Z,23.07
2017-07-06T06:09:13.821Z,19.17
2017-07-06T06:11:42.154Z,23.03
2017-07-06T06:14:13.258Z,19.43
2017-07-06T06:16:41.562Z,18.50
2017-07-06T06:19:11.747Z,19.20
2017-07-06T06:21:39.572Z,19.40
2017-07-06T06:24:08.280Z,20.07
2017-07-06T06:26:36.719Z,19.60
2017-07-06T06:29:04.777Z,23.63
2017-07-06T06:31:34.387Z,18.80
2017-07-06T06:34:06.752Z,21.17
2017-07-06T06:36:35.949Z,21.63
2017-07-06T06:39:04.940Z,19.57
2017-07-06T06:41:33.273Z,23.47
2017-07-06T06:44:01.491Z,20.43
2017-07-06T06:46:31.578Z,22.37
2017-07-06T06:49:01.341Z,18.60
2017-07-06T06:51:30.247Z,16.93
2017-07-06T06:53:56.906Z,17.53
2017-07-06T06:56:23.551Z,18.30
2017-07-06T06:58:50.180Z,16.10
2017-07-06T07:01:16.850Z,16.47
2017-07-06T07:03:43.475Z,16.20
2017-07-06T07:06:10.118Z,14.90
2017-07-06T07:08:36.741Z,15.87
2017-07-06T07:11:03.388Z,14.40
2017-07-06T07:13:30.037Z,16.90
2017-07-06T07:15:56.667Z,14.13
2017-07-06T07:18:23.323Z,15.70
2017-07-06T07:20:49.976Z,16.77
2017-07-06T07:23:16.630Z,13.13
2017-07-06T07:25:43.314Z,16.83
2017-07-06T07:28:09.958Z,14.97
2017-07-06T07:30:36.639Z,14.27
2017-07-06T07:33:03.269Z,19.33
2017-07-06T07:35:29.913Z,22.93
2017-07-06T07:37:56.551Z,17.33
2017-07-06T07:40:23.217Z,12.77
2017-07-06T07:42:49.860Z,13.10
2017-07-06T07:45:16.478Z,19.33
2017-07-06T07:47:43.116Z,21.47
2017-07-06T07:50:10.088Z,16.53
2017-07-06T07:52:36.739Z,17.50
2017-07-06T07:55:03.375Z,17.97
2017-07-06T07:57:30.348Z,12.43
2017-07-06T07:59:56.986Z,16.07
2017-07-06T08:02:23.635Z,22.73
2017-07-06T08:04:51.017Z,17.50
2017-07-06T08:07:17.669Z,18.73
2017-07-06T08:09:44.317Z,15.60
2017-07-06T08:12:10.952Z,19.40
2017-07-06T08:14:37.920Z,13.60
2017-07-06T08:17:04.550Z,18.30
2017-07-06T08:19:31.178Z,14.93
2017-07-06T08:21:57.810Z,13.73
2017-07-06T08:24:24.450Z,17.73
2017-07-06T08:26:51.104Z,16.93
2017-07-06T08:29:17.750Z,13.33
2017-07-06T08:31:44.402Z,12.53
2017-07-06T08:34:11.039Z,15.23
2017-07-06T08:36:38.323Z,13.07
2017-07-06T08:39:04.980Z,12.87
2017-07-06T08:41:31.616Z,12.20
2017-07-06T08:43:58.279Z,11.33
2017-07-06T08:46:24.931Z,11.20
2017-07-06T08:48:51.632Z,13.00
2017-07-06T08:51:18.293Z,12.30
2017-07-06T08:53:44.928Z,14.57
2017-07-06T08:56:11.599Z,11.13
2017-07-06T08:58:38.250Z,10.87
2017-07-06T09:01:04.878Z,12.70
2017-07-06T09:03:31.500Z,13.93
2017-07-06T09:05:58.163Z,11.30
2017-07-06T09:08:24.793Z,10.17
2017-07-06T09:10:51.439Z,10.60
2017-07-06T09:13:18.073Z,7.73
2017-07-06T09:15:44.718Z,12.70
2017-07-06T09:18:12.127Z,8.93
2017-07-06T09:20:38.760Z,8.00
2017-07-06T09:23:05.393Z,10.23
2017-07-06T09:25:32.025Z,7.33
2017-07-06T09:28:00.656Z,8.00
2017-07-06T09:30:27.310Z,36.93
2017-07-06T09:32:54.141Z,9.20
2017-07-06T09:35:20.848Z,7.90
2017-07-06T09:37:47.535Z,7.67
2017-07-06T09:40:14.159Z,7.27
2017-07-06T09:42:40.815Z,10.27
2017-07-06T09:45:07.444Z,6.37
2017-07-06T09:47:34.121Z,5.77
2017-07-06T09:50:00.792Z,8.43
2017-07-06T09:52:27.432Z,5.83
2017-07-06T09:54:54.060Z,5.53
2017-07-06T09:57:20.711Z,4.33
2017-07-06T09:59:47.332Z,4.93
2017-07-06T10:02:13.960Z,4.80
2017-07-06T10:04:40.619Z,11.23
2017-07-06T10:07:07.229Z,8.30
2017-07-06T10:09:33.878Z,5.70
2017-07-06T10:12:00.507Z,9.23
2017-07-06T10:14:27.140Z,5.93
2017-07-06T10:16:53.777Z,6.27
2017-07-06T10:19:20.394Z,9.10
2017-07-06T10:21:47.021Z,6.97
2017-07-06T10:24:13.661Z,5.33
2017-07-06T10:26:40.292Z,6.27
2017-07-06T10:29:06.931Z,4.40
2017-07-06T10:31:33.546Z,7.47
2017-07-06T10:34:00.175Z,4.40
2017-07-06T10:36:26.816Z,4.57
2017-07-06T10:38:53.451Z,4.03
2017-07-06T10:41:20.089Z,10.23
2017-07-06T10:43:46.722Z,6.20
2017-07-06T10:46:13.332Z,4.10
2017-07-06T10:48:39.982Z,4.63
2017-07-06T10:51:06.620Z,3.43
2017-07-06T10:53:33.255Z,3.90
2017-07-06T10:55:59.890Z,7.47
2017-07-06T10:58:26.527Z,4.20
2017-07-06T11:00:53.156Z,4.03
2017-07-06T11:03:19.788Z,10.00
2017-07-06T11:05:46.408Z,4.80
2017-07-06T11:08:13.056Z,5.70
2017-07-06T11:10:39.669Z,3.33
2017-07-06T11:13:06.320Z,4.47
2017-07-06T11:15:32.939Z,3.53
2017-07-06T11:17:59.592Z,4.10
2017-07-06T11:20:26.206Z,5.67
2017-07-06T11:22:52.860Z,4.93
2017-07-06T11:25:19.494Z,7.07
2017-07-06T11:27:46.106Z,5.73
2017-07-06T11:30:12.749Z,4.57
2017-07-06T11:32:39.368Z,4.10
2017-07-06T11:35:06.008Z,5.33
2017-07-06T11:37:32.629Z,6.43
2017-07-06T11:39:59.270Z,4.80
2017-07-06T11:42:25.900Z,6.67
2017-07-06T11:44:52.537Z,7.43
2017-07-06T11:47:19.198Z,7.17
2017-07-06T11:49:45.815Z,5.43
2017-07-06T11:52:12.470Z,5.40
2017-07-06T11:54:39.089Z,6.10
2017-07-06T11:57:05.727Z,9.87
2017-07-06T11:59:32.369Z,7.70
2017-07-06T12:01:59.011Z,5.53
2017-07-06T12:04:25.665Z,5.60
2017-07-06T12:06:52.318Z,10.10
2017-07-06T12:09:18.948Z,5.07
2017-07-06T12:11:45.587Z,5.03
2017-07-06T12:14:12.214Z,5.87
2017-07-06T12:16:38.867Z,8.70
2017-07-06T12:19:05.485Z,6.33
2017-07-06T12:21:32.120Z,7.80
2017-07-06T12:23:58.800Z,4.93
2017-07-06T12:26:25.437Z,8.47
2017-07-06T12:28:52.089Z,4.67
2017-07-06T12:31:18.712Z,7.37
2017-07-06T12:33:45.381Z,6.00
2017-07-06T12:36:12.031Z,3.57
2017-07-06T12:38:38.690Z,5.97
2017-07-06T12:41:05.349Z,6.07
2017-07-06T12:43:31.960Z,7.30
2017-07-06T12:45:58.573Z,7.80
2017-07-06T12:48:25.419Z,4.50
2017-07-06T12:50:52.043Z,8.50
2017-07-06T12:53:18.693Z,8.17
2017-07-06T12:55:45.332Z,6.03
2017-07-06T12:58:11.956Z,6.50
2017-07-06T13:00:38.607Z,4.83
2017-07-06T13:03:05.255Z,8.33
2017-07-06T13:05:31.886Z,5.97
2017-07-06T13:07:58.521Z,6.53
2017-07-06T13:10:25.193Z,3.80
2017-07-06T13:12:52.714Z,4.90
2017-07-06T13:15:19.332Z,5.90
2017-07-06T13:17:45.967Z,6.50
2017-07-06T13:20:12.604Z,17.07
2017-07-06T13:22:39.228Z,4.20
2017-07-06T13:25:05.849Z,7.13
2017-07-06T13:27:32.769Z,9.33
2017-07-06T13:29:59.416Z,8.13
2017-07-06T13:32:26.430Z,4.70
2017-07-06T13:34:53.059Z,13.73
2017-07-06T13:37:19.693Z,5.73
2017-07-06T13:39:46.315Z,5.43
2017-07-06T13:42:12.971Z,7.87
2017-07-06T13:44:39.601Z,5.00
2017-07-06T13:47:06.220Z,4.50
2017-07-06T13:49:32.860Z,6.27
2017-07-06T13:51:59.522Z,7.30
2017-07-06T13:54:26.167Z,5.53
2017-07-06T13:56:52.807Z,7.30
2017-07-06T13:59:19.452Z,10.70
2017-07-06T14:01:46.076Z,5.27
2017-07-06T14:04:12.720Z,6.63
2017-07-06T14:06:39.348Z,4.10
2017-07-06T14:09:05.952Z,8.50
2017-07-06T14:11:32.604Z,12.00
2017-07-06T14:13:59.235Z,6.13
2017-07-06T14:16:25.860Z,5.07
2017-07-06T14:18:52.479Z,9.33
2017-07-06T14:21:19.125Z,8.00
2017-07-06T14:23:45.772Z,8.43
2017-07-06T14:26:12.413Z,6.57
2017-07-06T14:28:39.028Z,5.60
2017-07-06T14:31:05.651Z,5.27
2017-07-06T14:33:32.281Z,13.10
2017-07-06T14:35:58.911Z,6.13
2017-07-06T14:38:25.535Z,5.03
2017-07-06T14:40:52.184Z,4.80
2017-07-06T14:43:18.823Z,10.73
2017-07-06T14:45:45.453Z,4.50
2017-07-06T14:48:12.080Z,11.20
2017-07-06T14:50:38.756Z,18.17
2017-07-06T14:53:05.373Z,25.27
2017-07-06T14:55:32.004Z,10.33
2017-07-06T14:57:58.624Z,8.70
2017-07-06T15:00:25.267Z,16.50
2017-07-06T15:02:52.897Z,10.57
2017-07-06T15:05:19.549Z,11.37
2017-07-06T15:07:46.180Z,9.27
2017-07-06T15:10:12.792Z,9.20
2017-07-06T15:12:39.465Z,12.53
2017-07-06T15:15:06.087Z,11.57
2017-07-06T15:17:32.720Z,10.40
2017-07-06T15:19:59.360Z,10.70
2017-07-06T15:22:25.990Z,13.73
2017-07-06T15:24:52.655Z,13.87
2017-07-06T15:27:19.277Z,13.40
2017-07-06T15:29:45.911Z,17.37
2017-07-06T15:32:12.539Z,15.43
2017-07-06T15:34:39.221Z,16.57
2017-07-06T15:37:05.870Z,12.40
2017-07-06T15:39:32.488Z,10.90
2017-07-06T15:41:59.127Z,12.30
2017-07-06T15:44:25.734Z,11.30
2017-07-06T15:46:52.363Z,17.73
2017-07-06T15:49:19.014Z,10.13
2017-07-06T15:51:45.664Z,12.87
2017-07-06T15:54:12.322Z,11.80
2017-07-06T15:56:38.936Z,9.00
2017-07-06T15:59:05.552Z,7.90
2017-07-06T16:01:32.190Z,14.77
2017-07-06T16:03:58.812Z,8.20
2017-07-06T16:06:25.448Z,15.23
2017-07-06T16:08:52.073Z,7.30
2017-07-06T16:11:18.702Z,11.37
2017-07-06T16:13:45.344Z,10.17
2017-07-06T16:16:11.947Z,8.70
2017-07-06T16:18:38.586Z,10.03
2017-07-06T16:21:05.231Z,13.20
2017-07-06T16:23:31.877Z,9.23
2017-07-06T16:25:58.509Z,9.47
2017-07-06T16:28:25.175Z,12.47
2017-07-06T16:30:51.804Z,7.13
2017-07-06T16:33:18.428Z,11.00
2017-07-06T16:35:45.080Z,12.03
2017-07-06T16:38:11.737Z,8.87
2017-07-06T16:40:38.388Z,8.40
2017-07-06T16:43:05.049Z,12.20
2017-07-06T16:45:31.699Z,11.70
2017-07-06T16:47:58.332Z,11.60
2017-07-06T16:50:24.983Z,9.37
2017-07-06T16:52:51.614Z,10.57
2017-07-06T16:55:18.251Z,13.60
2017-07-06T16:57:44.882Z,15.00
2017-07-06T17:00:11.499Z,11.87
2017-07-06T17:02:38.141Z,9.30
2017-07-06T17:05:04.772Z,9.83
2017-07-06T17:07:31.408Z,11.83
2017-07-06T17:09:58.048Z,10.40
2017-07-06T17:12:24.658Z,11.87
2017-07-06T17:14:51.287Z,14.30
2017-07-06T17:17:17.933Z,7.53
2017-07-06T17:19:44.573Z,17.47
2017-07-06T17:22:11.204Z,9.40
2017-07-06T17:24:37.810Z,12.47
2017-07-06T17:27:04.455Z,13.07
2017-07-06T17:29:31.075Z,9.70
2017-07-06T17:31:57.715Z,10.80
2017-07-06T17:34:24.332Z,16.47
2017-07-06T17:36:50.962Z,11.33
2017-07-06T17:39:17.605Z,9.63
2017-07-06T17:41:44.232Z,14.13
2017-07-06T17:44:10.876Z,15.07
2017-07-06T17:46:37.531Z,12.07
2017-07-06T17:49:04.149Z,24.07
2017-07-06T17:51:30.775Z,14.60
2017-07-06T17:53:57.399Z,9.17
2017-07-06T17:56:24.081Z,11.40
2017-07-06T17:58:50.744Z,14.63
2017-07-06T18:01:18.197Z,12.00
2017-07-06T18:03:44.866Z,14.60
2017-07-06T18:06:11.512Z,15.87
2017-07-06T18:08:38.173Z,13.20
2017-07-06T18:11:04.807Z,12.93
2017-07-06T18:13:31.463Z,20.63
2017-07-06T18:15:58.166Z,19.30
2017-07-06T18:18:24.792Z,14.23
2017-07-06T18:20:51.464Z,11.60
2017-07-06T18:23:18.098Z,19.73
2017-07-06T18:25:45.181Z,14.63
2017-07-06T18:28:11.846Z,15.57
2017-07-06T18:30:38.526Z,15.20
2017-07-06T18:33:05.179Z,15.30
2017-07-06T18:35:31.813Z,17.97
2017-07-06T18:37:58.468Z,15.90
2017-07-06T18:40:25.115Z,15.23
2017-07-06T18:42:51.762Z,16.10
2017-07-06T18:45:18.430Z,21.70
2017-07-06T18:47:45.463Z,19.10
2017-07-06T18:50:12.109Z,22.83
2017-07-06T18:52:38.755Z,21.90
2017-07-06T18:55:06.310Z,20.17
2017-07-06T18:57:32.948Z,22.03
2017-07-06T18:59:59.577Z,17.23
2017-07-06T19:02:26.255Z,19.87
2017-07-06T19:04:52.923Z,15.37
2017-07-06T19:07:19.594Z,14.53
2017-07-06T19:09:46.232Z,20.17
2017-07-06T19:12:12.860Z,23.60
2017-07-06T19:14:39.521Z,18.60
2017-07-06T19:17:06.191Z,15.80
2017-07-06T19:19:32.935Z,20.70
2017-07-06T19:21:59.567Z,14.90
2017-07-06T19:24:26.936Z,14.70
2017-07-06T19:26:53.570Z,15.23
2017-07-06T19:29:20.809Z,13.07
2017-07-06T19:31:51.381Z,11.57
2017-07-06T19:34:18.357Z,12.20
2017-07-06T19:36:45.603Z,16.73
2017-07-06T19:39:12.499Z,13.17
2017-07-06T19:41:39.096Z,9.43
2017-07-06T19:44:07.427Z,13.00
2017-07-06T19:46:34.096Z,12.03
2017-07-06T19:49:00.737Z,11.60
2017-07-06T19:51:27.381Z,10.50
2017-07-06T19:53:56.339Z,11.20
2017-07-06T19:56:22.988Z,16.57
2017-07-06T19:58:49.670Z,15.57
2017-07-06T20:01:17.927Z,8.63
2017-07-06T20:03:48.136Z,9.40
2017-07-06T20:06:14.772Z,9.33
2017-07-06T20:08:41.427Z,10.03
2017-07-06T20:11:08.055Z,11.83
2017-07-06T20:13:34.685Z,9.70
2017-07-06T20:16:01.338Z,11.23
2017-07-06T20:18:27.981Z,9.07
2017-07-06T20:20:54.620Z,9.73
2017-07-06T20:23:22.126Z,9.17
2017-07-06T20:25:48.755Z,10.70
2017-07-06T20:28:15.409Z,8.97
2017-07-06T20:30:42.410Z,12.47
2017-07-06T20:33:09.080Z,11.60
2017-07-06T20:35:35.723Z,8.83
2017-07-06T20:38:02.332Z,8.67
2017-07-06T20:40:28.966Z,12.63
2017-07-06T20:42:55.600Z,10.83
2017-07-06T20:45:22.257Z,10.00
2017-07-06T20:47:48.890Z,9.00
2017-07-06T20:50:15.514Z,9.00
2017-07-06T20:52:42.159Z,8.77
2017-07-06T20:55:08.851Z,12.47
2017-07-06T20:57:35.463Z,13.47
2017-07-06T21:00:02.096Z,9.03
2017-07-06T21:02:28.737Z,10.10
2017-07-06T21:04:55.376Z,10.73
2017-07-06T21:07:22.000Z,9.03
2017-07-06T21:09:48.644Z,12.13
2017-07-06T21:12:15.285Z,9.03
2017-07-06T21:14:41.922Z,7.87
2017-07-06T21:17:08.892Z,11.13
2017-07-06T21:19:35.514Z,23.80
2017-07-06T21:22:02.195Z,15.80
2017-07-06T21:24:28.839Z,11.80
2017-07-06T21:26:55.855Z,12.63
2017-07-06T21:29:22.515Z,12.47
2017-07-06T21:31:49.959Z,12.70
2017-07-06T21:34:16.625Z,12.10
2017-07-06T21:36:43.264Z,12.73
2017-07-06T21:39:09.891Z,9.13
2017-07-06T21:41:36.549Z,12.80
2017-07-06T21:44:03.185Z,15.70
2017-07-06T21:46:29.834Z,17.93
2017-07-06T21:48:56.462Z,16.70
2017-07-06T21:51:23.111Z,16.93
2017-07-06T21:53:49.752Z,20.33
2017-07-06T21:56:16.393Z,21.90
2017-07-06T21:58:43.037Z,21.43
2017-07-06T22:01:09.679Z,30.80
2017-07-06T22:03:36.343Z,29.27
2017-07-06T22:06:02.955Z,34.33
2017-07-06T22:08:29.602Z,41.50
2017-07-06T22:10:56.220Z,37.10
2017-07-06T22:13:23.687Z,37.20
2017-07-06T22:15:50.305Z,36.40
2017-07-06T22:18:16.963Z,27.90
2017-07-06T22:20:43.621Z,21.70
2017-07-06T22:23:10.275Z,27.53
2017-07-06T22:25:36.928Z,38.63
2017-07-06T22:28:03.575Z,41.63
2017-07-06T22:30:30.241Z,44.70
2017-07-06T22:32:56.897Z,40.13
2017-07-06T22:35:23.538Z,38.77
2017-07-06T22:37:50.176Z,39.87
2017-07-06T22:40:16.816Z,39.53
2017-07-06T22:42:44.333Z,41.57
2017-07-06T22:45:10.999Z,35.07
2017-07-06T22:47:37.644Z,35.07
2017-07-06T22:50:04.276Z,37.17
2017-07-06T22:52:30.906Z,36.40
2017-07-06T22:54:57.601Z,43.33
2017-07-06T22:57:24.198Z,35.43
2017-07-06T22:59:50.850Z,41.40
2017-07-06T23:02:17.483Z,51.20
2017-07-06T23:04:44.151Z,39.73
2017-07-06T23:07:10.795Z,50.20
2017-07-06T23:09:37.440Z,49.23
2017-07-06T23:12:04.056Z,62.90
2017-07-06T23:14:31.381Z,52.00
2017-07-06T23:16:58.028Z,56.70
2017-07-06T23:19:24.681Z,55.87
2017-07-06T23:21:51.316Z,55.80
2017-07-06T23:24:17.998Z,49.97
2017-07-06T23:26:44.661Z,56.97
2017-07-06T23:29:11.281Z,47.57
2017-07-06T23:31:37.905Z,33.20
2017-07-06T23:34:04.568Z,29.90
2017-07-06T23:36:31.207Z,17.47
2017-07-06T23:38:57.838Z,17.13
2017-07-06T23:41:24.492Z,18.10
2017-07-06T23:43:51.117Z,17.87
2017-07-06T23:46:17.759Z,20.30
2017-07-06T23:48:45.178Z,21.63
2017-07-06T23:51:11.829Z,28.10
2017-07-06T23:53:38.469Z,24.43
2017-07-06T23:56:05.109Z,22.93
2017-07-06T23:58:31.763Z,26.07
